sensor_id;sensor_type;location;lat;lon;timestamp;pressure;altitude;pressure_sealevel;temperature;humidity
55066;BME280;40964;42.114;24.220;2023-05-01T00:01:48;97716.94;;;11.83;97.96
55066;BME280;40964;42.114;24.220;2023-05-01T00:04:14;97720.72;;;11.87;98.87
55066;BME280;40964;42.114;24.220;2023-05-01T00:06:41;97704.66;;;11.77;98.25
55066;BME280;40964;42.114;24.220;2023-05-01T00:09:06;97707.09;;;11.90;98.60
55066;BME280;40964;42.114;24.220;2023-05-01T00:11:34;97705.03;;;11.92;98.95
55066;BME280;40964;42.114;24.220;2023-05-01T00:14:00;97714.09;;;11.97;98.59
55066;BME280;40964;42.114;24.220;2023-05-01T00:16:25;97715.69;;;11.98;97.63
55066;BME280;40964;42.114;24.220;2023-05-01T00:18:51;97716.19;;;12.06;97.03
55066;BME280;40964;42.114;24.220;2023-05-01T00:21:16;97715.84;;;12.14;96.86
55066;BME280;40964;42.114;24.220;2023-05-01T00:23:42;97728.31;;;12.19;96.76
55066;BME280;40964;42.114;24.220;2023-05-01T00:26:07;97734.25;;;12.03;97.59
55066;BME280;40964;42.114;24.220;2023-05-01T00:28:33;97751.81;;;11.97;99.00
55066;BME280;40964;42.114;24.220;2023-05-01T00:30:58;97743.28;;;11.95;98.63
55066;BME280;40964;42.114;24.220;2023-05-01T00:33:24;97753.41;;;11.98;99.70
55066;BME280;40964;42.114;24.220;2023-05-01T00:35:49;97745.84;;;12.02;98.70
55066;BME280;40964;42.114;24.220;2023-05-01T00:38:15;97757.56;;;12.06;99.33
55066;BME280;40964;42.114;24.220;2023-05-01T00:40:44;97761.31;;;12.10;98.88
55066;BME280;40964;42.114;24.220;2023-05-01T00:43:10;97767.41;;;12.10;97.34
55066;BME280;40964;42.114;24.220;2023-05-01T00:45:36;97773.59;;;12.16;97.09
55066;BME280;40964;42.114;24.220;2023-05-01T00:48:02;97773.28;;;12.24;96.17
55066;BME280;40964;42.114;24.220;2023-05-01T00:50:28;97773.38;;;12.17;97.88
55066;BME280;40964;42.114;24.220;2023-05-01T00:52:54;97772.47;;;12.24;98.21
55066;BME280;40964;42.114;24.220;2023-05-01T00:55:20;97771.41;;;12.13;99.71
55066;BME280;40964;42.114;24.220;2023-05-01T00:57:46;97760.88;;;12.13;100.00
55066;BME280;40964;42.114;24.220;2023-05-01T01:00:12;97766.50;;;12.05;100.00
55066;BME280;40964;42.114;24.220;2023-05-01T01:02:38;97770.59;;;12.12;100.00
55066;BME280;40964;42.114;24.220;2023-05-01T01:05:04;97775.06;;;12.12;100.00
55066;BME280;40964;42.114;24.220;2023-05-01T01:07:40;97762.69;;;12.12;99.12
55066;BME280;40964;42.114;24.220;2023-05-01T01:13:16;97767.06;;;12.18;100.00
55066;BME280;40964;42.114;24.220;2023-05-01T01:18:22;97769.38;;;12.15;97.45
55066;BME280;40964;42.114;24.220;2023-05-01T01:26:23;97761.09;;;12.00;95.68
55066;BME280;40964;42.114;24.220;2023-05-01T01:32:10;97755.47;;;11.96;95.64
55066;BME280;40964;42.114;24.220;2023-05-01T01:34:54;97761.53;;;11.97;95.50
55066;BME280;40964;42.114;24.220;2023-05-01T01:37:24;97760.75;;;11.96;94.79
55066;BME280;40964;42.114;24.220;2023-05-01T01:42:36;97758.22;;;12.01;94.11
55066;BME280;40964;42.114;24.220;2023-05-01T01:45:07;97761.31;;;12.10;91.56
55066;BME280;40964;42.114;24.220;2023-05-01T01:47:35;97770.59;;;12.12;91.67
55066;BME280;40964;42.114;24.220;2023-05-01T01:50:06;97753.41;;;11.98;92.61
55066;BME280;40964;42.114;24.220;2023-05-01T01:52:35;97767.06;;;12.07;93.47
55066;BME280;40964;42.114;24.220;2023-05-01T01:55:06;97768.03;;;11.94;93.37
55066;BME280;40964;42.114;24.220;2023-05-01T01:57:35;97762.78;;;11.94;93.34
55066;BME280;40964;42.114;24.220;2023-05-01T02:00:02;97757.06;;;11.97;93.42
55066;BME280;40964;42.114;24.220;2023-05-01T02:02:34;97744.44;;;11.87;94.07
55066;BME280;40964;42.114;24.220;2023-05-01T02:05:02;97761.97;;;11.93;94.70
55066;BME280;40964;42.114;24.220;2023-05-01T02:07:30;97757.50;;;11.94;94.11
55066;BME280;40964;42.114;24.220;2023-05-01T02:09:58;97768.59;;;11.84;95.31
55066;BME280;40964;42.114;24.220;2023-05-01T02:12:26;97775.16;;;11.63;97.10
55066;BME280;40964;42.114;24.220;2023-05-01T02:14:52;97760.19;;;11.46;98.87
55066;BME280;40964;42.114;24.220;2023-05-01T02:17:19;97759.63;;;11.44;99.34
55066;BME280;40964;42.114;24.220;2023-05-01T02:19:45;97777.50;;;11.53;99.74
55066;BME280;40964;42.114;24.220;2023-05-01T02:22:12;97785.50;;;11.47;100.00
55066;BME280;40964;42.114;24.220;2023-05-01T02:24:41;97792.00;;;11.44;100.00
55066;BME280;40964;42.114;24.220;2023-05-01T02:27:20;97780.41;;;11.33;100.00
55066;BME280;40964;42.114;24.220;2023-05-01T02:29:47;97790.13;;;11.33;100.00
55066;BME280;40964;42.114;24.220;2023-05-01T02:32:13;97780.25;;;11.28;100.00
55066;BME280;40964;42.114;24.220;2023-05-01T02:34:38;97781.41;;;11.14;99.41
55066;BME280;40964;42.114;24.220;2023-05-01T02:37:05;97783.63;;;10.99;100.00
55066;BME280;40964;42.114;24.220;2023-05-01T02:39:31;97793.78;;;10.95;100.00
55066;BME280;40964;42.114;24.220;2023-05-01T02:41:57;97793.34;;;10.80;100.00
55066;BME280;40964;42.114;24.220;2023-05-01T02:44:26;97788.78;;;10.87;100.00
55066;BME280;40964;42.114;24.220;2023-05-01T02:46:54;97782.31;;;10.90;100.00
55066;BME280;40964;42.114;24.220;2023-05-01T02:49:21;97786.09;;;10.94;99.85
55066;BME280;40964;42.114;24.220;2023-05-01T02:51:47;97772.88;;;10.82;99.90
55066;BME280;40964;42.114;24.220;2023-05-01T02:54:13;97777.56;;;10.80;100.00
55066;BME280;40964;42.114;24.220;2023-05-01T02:56:40;97773.97;;;10.74;100.00
55066;BME280;40964;42.114;24.220;2023-05-01T02:59:06;97767.53;;;10.70;100.00
55066;BME280;40964;42.114;24.220;2023-05-01T03:01:32;97767.09;;;10.73;99.96
55066;BME280;40964;42.114;24.220;2023-05-01T03:03:57;97772.34;;;10.73;99.80
55066;BME280;40964;42.114;24.220;2023-05-01T03:06:23;97769.72;;;10.73;98.83
55066;BME280;40964;42.114;24.220;2023-05-01T03:08:48;97769.94;;;10.72;97.81
55066;BME280;40964;42.114;24.220;2023-05-01T03:11:14;97766.34;;;10.66;96.15
55066;BME280;40964;42.114;24.220;2023-05-01T03:13:39;97778.91;;;10.64;96.87
55066;BME280;40964;42.114;24.220;2023-05-01T03:16:05;97773.66;;;10.64;96.87
55066;BME280;40964;42.114;24.220;2023-05-01T03:18:31;97785.19;;;10.63;96.39
55066;BME280;40964;42.114;24.220;2023-05-01T03:20:57;97777.94;;;10.59;96.18
55066;BME280;40964;42.114;24.220;2023-05-01T03:23:22;97786.38;;;10.67;95.34
55066;BME280;40964;42.114;24.220;2023-05-01T03:25:48;97800.41;;;10.61;95.92
55066;BME280;40964;42.114;24.220;2023-05-01T03:28:14;97757.22;;;10.26;96.88
55066;BME280;40964;42.114;24.220;2023-05-01T03:30:40;97804.09;;;10.54;96.43
55066;BME280;40964;42.114;24.220;2023-05-01T03:33:06;97813.19;;;10.51;96.18
55066;BME280;40964;42.114;24.220;2023-05-01T03:35:31;97815.25;;;10.49;96.74
55066;BME280;40964;42.114;24.220;2023-05-01T03:37:57;97809.41;;;10.47;96.13
55066;BME280;40964;42.114;24.220;2023-05-01T03:40:22;97823.97;;;10.68;96.25
55066;BME280;40964;42.114;24.220;2023-05-01T03:42:48;97814.97;;;10.82;95.30
55066;BME280;40964;42.114;24.220;2023-05-01T03:45:13;97817.25;;;10.78;94.33
55066;BME280;40964;42.114;24.220;2023-05-01T03:47:39;97821.63;;;11.03;94.42
55066;BME280;40964;42.114;24.220;2023-05-01T03:50:04;97821.78;;;11.45;92.47
55066;BME280;40964;42.114;24.220;2023-05-01T03:52:30;97824.16;;;11.64;91.22
55066;BME280;40964;42.114;24.220;2023-05-01T03:54:56;97825.41;;;11.80;90.42
55066;BME280;40964;42.114;24.220;2023-05-01T03:57:21;97825.22;;;12.24;89.59
55066;BME280;40964;42.114;24.220;2023-05-01T03:59:48;97835.94;;;12.64;87.20
55066;BME280;40964;42.114;24.220;2023-05-01T04:02:14;97830.09;;;12.97;85.87
55066;BME280;40964;42.114;24.220;2023-05-01T04:04:39;97821.22;;;13.38;82.88
55066;BME280;40964;42.114;24.220;2023-05-01T04:07:05;97835.78;;;13.81;80.69
55066;BME280;40964;42.114;24.220;2023-05-01T04:09:31;97822.97;;;14.18;79.59
55066;BME280;40964;42.114;24.220;2023-05-01T04:11:56;97836.91;;;14.59;78.43
55066;BME280;40964;42.114;24.220;2023-05-01T04:14:21;97829.25;;;14.96;76.44
55066;BME280;40964;42.114;24.220;2023-05-01T04:16:48;97835.03;;;15.31;73.90
55066;BME280;40964;42.114;24.220;2023-05-01T04:19:14;97815.44;;;15.54;72.26
55066;BME280;40964;42.114;24.220;2023-05-01T04:21:40;97827.31;;;15.96;70.99
55066;BME280;40964;42.114;24.220;2023-05-01T04:24:06;97831.09;;;16.27;69.73
55066;BME280;40964;42.114;24.220;2023-05-01T04:26:31;97830.22;;;16.53;68.59
55066;BME280;40964;42.114;24.220;2023-05-01T04:28:56;97834.22;;;16.83;66.51
55066;BME280;40964;42.114;24.220;2023-05-01T04:31:23;97828.00;;;17.09;65.90
55066;BME280;40964;42.114;24.220;2023-05-01T04:33:49;97828.91;;;17.30;64.17
55066;BME280;40964;42.114;24.220;2023-05-01T04:36:15;97830.56;;;17.51;62.79
55066;BME280;40964;42.114;24.220;2023-05-01T04:38:42;97828.84;;;17.72;62.55
55066;BME280;40964;42.114;24.220;2023-05-01T04:41:07;97838.75;;;18.02;62.27
55066;BME280;40964;42.114;24.220;2023-05-01T04:43:32;97845.72;;;18.29;62.04
55066;BME280;40964;42.114;24.220;2023-05-01T04:45:58;97844.16;;;18.43;64.61
55066;BME280;40964;42.114;24.220;2023-05-01T04:48:23;97844.94;;;18.54;62.80
55066;BME280;40964;42.114;24.220;2023-05-01T04:50:49;97841.19;;;18.39;63.42
55066;BME280;40964;42.114;24.220;2023-05-01T04:53:14;97846.00;;;18.48;64.56
55066;BME280;40964;42.114;24.220;2023-05-01T04:55:40;97848.94;;;18.36;66.22
55066;BME280;40964;42.114;24.220;2023-05-01T04:58:05;97855.56;;;18.28;66.61
55066;BME280;40964;42.114;24.220;2023-05-01T05:00:30;97853.66;;;17.98;67.52
55066;BME280;40964;42.114;24.220;2023-05-01T05:02:56;97856.41;;;17.61;68.63
55066;BME280;40964;42.114;24.220;2023-05-01T05:05:21;97862.94;;;17.33;70.86
55066;BME280;40964;42.114;24.220;2023-05-01T05:07:47;97867.19;;;17.34;68.38
55066;BME280;40964;42.114;24.220;2023-05-01T05:10:12;97857.66;;;17.43;67.12
55066;BME280;40964;42.114;24.220;2023-05-01T05:12:38;97864.69;;;17.65;65.98
55066;BME280;40964;42.114;24.220;2023-05-01T05:15:04;97858.16;;;17.93;66.14
55066;BME280;40964;42.114;24.220;2023-05-01T05:17:30;97867.00;;;18.08;64.21
55066;BME280;40964;42.114;24.220;2023-05-01T05:19:55;97879.28;;;18.35;60.77
55066;BME280;40964;42.114;24.220;2023-05-01T05:22:21;97879.56;;;18.43;61.25
55066;BME280;40964;42.114;24.220;2023-05-01T05:24:46;97883.56;;;18.46;61.30
55066;BME280;40964;42.114;24.220;2023-05-01T05:27:11;97878.72;;;18.23;61.59
55066;BME280;40964;42.114;24.220;2023-05-01T05:29:37;97880.31;;;18.24;62.88
55066;BME280;40964;42.114;24.220;2023-05-01T05:32:02;97889.22;;;17.77;69.58
55066;BME280;40964;42.114;24.220;2023-05-01T05:34:28;97885.34;;;17.47;71.87
55066;BME280;40964;42.114;24.220;2023-05-01T05:36:54;97889.44;;;17.18;74.16
55066;BME280;40964;42.114;24.220;2023-05-01T05:39:22;97885.59;;;16.98;75.85
55066;BME280;40964;42.114;24.220;2023-05-01T05:41:48;97893.28;;;16.68;77.14
55066;BME280;40964;42.114;24.220;2023-05-01T05:44:13;97887.56;;;16.49;76.44
55066;BME280;40964;42.114;24.220;2023-05-01T05:46:39;97886.69;;;16.70;75.16
55066;BME280;40964;42.114;24.220;2023-05-01T05:49:04;97893.94;;;16.80;71.67
55066;BME280;40964;42.114;24.220;2023-05-01T05:51:30;97900.63;;;16.88;71.00
55066;BME280;40964;42.114;24.220;2023-05-01T05:53:56;97898.94;;;17.09;70.02
55066;BME280;40964;42.114;24.220;2023-05-01T05:56:21;97902.47;;;17.19;65.20
55066;BME280;40964;42.114;24.220;2023-05-01T05:58:48;97920.69;;;17.43;68.48
55066;BME280;40964;42.114;24.220;2023-05-01T06:01:14;97915.28;;;17.27;68.33
55066;BME280;40964;42.114;24.220;2023-05-01T06:03:39;97917.69;;;17.34;69.38
55066;BME280;40964;42.114;24.220;2023-05-01T06:06:05;97924.22;;;17.53;67.43
55066;BME280;40964;42.114;24.220;2023-05-01T06:08:30;97925.97;;;17.38;65.99
55066;BME280;40964;42.114;24.220;2023-05-01T06:10:56;97923.53;;;17.31;65.03
55066;BME280;40964;42.114;24.220;2023-05-01T06:13:23;97927.72;;;17.22;66.46
55066;BME280;40964;42.114;24.220;2023-05-01T06:15:49;97933.47;;;17.46;68.95
55066;BME280;40964;42.114;24.220;2023-05-01T06:18:14;97935.00;;;17.37;69.59
55066;BME280;40964;42.114;24.220;2023-05-01T06:20:40;97935.13;;;17.15;70.68
55066;BME280;40964;42.114;24.220;2023-05-01T06:23:05;97936.97;;;17.14;70.68
55066;BME280;40964;42.114;24.220;2023-05-01T06:25:33;97937.63;;;17.26;70.74
55066;BME280;40964;42.114;24.220;2023-05-01T06:27:59;97936.88;;;17.36;73.87
55066;BME280;40964;42.114;24.220;2023-05-01T06:30:24;97937.03;;;17.67;71.80
55066;BME280;40964;42.114;24.220;2023-05-01T06:32:50;97941.81;;;17.65;70.23
55066;BME280;40964;42.114;24.220;2023-05-01T06:35:15;97941.22;;;18.05;69.46
55066;BME280;40964;42.114;24.220;2023-05-01T06:37:41;97943.41;;;18.23;65.32
55066;BME280;40964;42.114;24.220;2023-05-01T06:40:07;97949.84;;;18.37;65.38
55066;BME280;40964;42.114;24.220;2023-05-01T06:42:34;97956.00;;;18.48;64.17
55066;BME280;40964;42.114;24.220;2023-05-01T06:45:00;97955.84;;;18.02;65.50
55066;BME280;40964;42.114;24.220;2023-05-01T06:47:25;97956.25;;;18.47;66.30
55066;BME280;40964;42.114;24.220;2023-05-01T06:49:51;97951.50;;;18.54;64.58
55066;BME280;40964;42.114;24.220;2023-05-01T06:52:16;97955.44;;;18.41;65.05
55066;BME280;40964;42.114;24.220;2023-05-01T06:54:41;97967.81;;;18.73;64.41
55066;BME280;40964;42.114;24.220;2023-05-01T06:57:07;97961.94;;;18.96;67.76
55066;BME280;40964;42.114;24.220;2023-05-01T06:59:32;97961.94;;;18.76;63.12
55066;BME280;40964;42.114;24.220;2023-05-01T07:01:58;97959.56;;;18.79;64.21
55066;BME280;40964;42.114;24.220;2023-05-01T07:04:23;97961.41;;;19.04;63.39
55066;BME280;40964;42.114;24.220;2023-05-01T07:06:49;97966.19;;;19.22;59.80
55066;BME280;40964;42.114;24.220;2023-05-01T07:09:14;97957.13;;;19.59;62.07
55066;BME280;40964;42.114;24.220;2023-05-01T07:11:40;97965.88;;;19.75;60.82
55066;BME280;40964;42.114;24.220;2023-05-01T07:14:06;97973.13;;;19.64;58.79
55066;BME280;40964;42.114;24.220;2023-05-01T07:16:32;97962.38;;;19.84;63.00
55066;BME280;40964;42.114;24.220;2023-05-01T07:18:58;97965.75;;;20.16;57.90
55066;BME280;40964;42.114;24.220;2023-05-01T07:21:23;97963.13;;;20.05;56.48
55066;BME280;40964;42.114;24.220;2023-05-01T07:23:49;97965.47;;;20.17;58.58
55066;BME280;40964;42.114;24.220;2023-05-01T07:26:33;97958.72;;;20.35;59.28
55066;BME280;40964;42.114;24.220;2023-05-01T07:28:59;97962.16;;;20.46;55.54
55066;BME280;40964;42.114;24.220;2023-05-01T07:31:24;97962.66;;;20.48;53.98
55066;BME280;40964;42.114;24.220;2023-05-01T07:33:50;97960.69;;;20.68;52.64
55066;BME280;40964;42.114;24.220;2023-05-01T07:36:15;97963.81;;;20.81;50.73
55066;BME280;40964;42.114;24.220;2023-05-01T07:38:42;97963.31;;;21.08;49.77
55066;BME280;40964;42.114;24.220;2023-05-01T07:41:09;97969.06;;;21.30;48.73
55066;BME280;40964;42.114;24.220;2023-05-01T07:43:34;97969.88;;;21.31;49.94
55066;BME280;40964;42.114;24.220;2023-05-01T07:46:00;97969.38;;;21.52;50.12
55066;BME280;40964;42.114;24.220;2023-05-01T07:48:27;97977.38;;;21.58;49.98
55066;BME280;40964;42.114;24.220;2023-05-01T07:50:53;97972.28;;;21.56;47.24
55066;BME280;40964;42.114;24.220;2023-05-01T07:53:19;97965.69;;;21.72;47.19
55066;BME280;40964;42.114;24.220;2023-05-01T07:55:44;97972.81;;;21.82;47.84
55066;BME280;40964;42.114;24.220;2023-05-01T07:58:10;97972.19;;;21.37;45.89
55066;BME280;40964;42.114;24.220;2023-05-01T08:00:35;97980.50;;;21.36;47.44
55066;BME280;40964;42.114;24.220;2023-05-01T08:03:02;97980.75;;;21.39;46.13
55066;BME280;40964;42.114;24.220;2023-05-01T08:05:27;97969.44;;;21.13;47.22
55066;BME280;40964;42.114;24.220;2023-05-01T08:07:53;97978.34;;;21.38;48.46
55066;BME280;40964;42.114;24.220;2023-05-01T08:10:18;97970.13;;;21.29;46.89
55066;BME280;40964;42.114;24.220;2023-05-01T08:12:44;97967.22;;;21.54;47.14
55066;BME280;40964;42.114;24.220;2023-05-01T08:15:10;97976.31;;;21.53;47.04
55066;BME280;40964;42.114;24.220;2023-05-01T08:17:35;97968.63;;;21.76;45.42
55066;BME280;40964;42.114;24.220;2023-05-01T08:20:01;97975.72;;;21.86;46.53
55066;BME280;40964;42.114;24.220;2023-05-01T08:22:27;97973.34;;;21.84;46.43
55066;BME280;40964;42.114;24.220;2023-05-01T08:24:52;97971.34;;;21.95;47.14
55066;BME280;40964;42.114;24.220;2023-05-01T08:27:18;97980.84;;;22.11;46.62
55066;BME280;40964;42.114;24.220;2023-05-01T08:29:44;97974.47;;;22.26;45.36
55066;BME280;40964;42.114;24.220;2023-05-01T08:32:09;97980.88;;;22.49;47.59
55066;BME280;40964;42.114;24.220;2023-05-01T08:34:35;97978.41;;;22.33;44.27
55066;BME280;40964;42.114;24.220;2023-05-01T08:37:00;97975.53;;;22.49;43.60
55066;BME280;40964;42.114;24.220;2023-05-01T08:39:26;97978.84;;;22.59;42.66
55066;BME280;40964;42.114;24.220;2023-05-01T08:41:51;97970.50;;;22.23;43.49
55066;BME280;40964;42.114;24.220;2023-05-01T08:44:18;97972.00;;;22.05;43.62
55066;BME280;40964;42.114;24.220;2023-05-01T08:49:12;97969.50;;;22.38;44.23
55066;BME280;40964;42.114;24.220;2023-05-01T08:51:40;97968.59;;;22.24;43.64
55066;BME280;40964;42.114;24.220;2023-05-01T08:54:06;97942.16;;;22.36;43.30
55066;BME280;40964;42.114;24.220;2023-05-01T08:56:35;97968.13;;;22.41;46.37
55066;BME280;40964;42.114;24.220;2023-05-01T08:59:03;97964.34;;;22.60;44.23
55066;BME280;40964;42.114;24.220;2023-05-01T09:01:30;97964.84;;;22.62;44.17
55066;BME280;40964;42.114;24.220;2023-05-01T09:03:57;97960.56;;;22.99;45.72
55066;BME280;40964;42.114;24.220;2023-05-01T09:06:28;97958.47;;;22.77;42.36
55066;BME280;40964;42.114;24.220;2023-05-01T09:08:54;97962.75;;;22.97;40.14
55066;BME280;40964;42.114;24.220;2023-05-01T09:11:23;97963.91;;;23.10;45.14
55066;BME280;40964;42.114;24.220;2023-05-01T09:13:50;97969.78;;;23.26;42.45
55066;BME280;40964;42.114;24.220;2023-05-01T09:16:16;97974.47;;;23.20;43.20
55066;BME280;40964;42.114;24.220;2023-05-01T09:18:42;97970.22;;;23.33;43.24
55066;BME280;40964;42.114;24.220;2023-05-01T09:21:08;97969.72;;;23.31;41.48
55066;BME280;40964;42.114;24.220;2023-05-01T09:23:34;97961.31;;;23.05;42.34
55066;BME280;40964;42.114;24.220;2023-05-01T09:26:07;97971.91;;;23.29;42.02
55066;BME280;40964;42.114;24.220;2023-05-01T09:28:43;97968.75;;;23.73;43.24
55066;BME280;40964;42.114;24.220;2023-05-01T09:31:25;97980.91;;;23.51;41.55
55066;BME280;40964;42.114;24.220;2023-05-01T09:36:25;97965.03;;;23.36;39.28
55066;BME280;40964;42.114;24.220;2023-05-01T09:38:51;97971.81;;;23.34;40.02
55066;BME280;40964;42.114;24.220;2023-05-01T09:41:17;97963.91;;;23.56;40.04
55066;BME280;40964;42.114;24.220;2023-05-01T09:43:49;97966.84;;;24.01;40.44
55066;BME280;40964;42.114;24.220;2023-05-01T09:46:15;97967.03;;;24.04;39.15
55066;BME280;40964;42.114;24.220;2023-05-01T09:48:51;97966.19;;;24.59;41.59
55066;BME280;40964;42.114;24.220;2023-05-01T09:51:28;97958.16;;;25.26;42.31
55066;BME280;40964;42.114;24.220;2023-05-01T09:54:01;97963.41;;;25.31;37.77
55066;BME280;40964;42.114;24.220;2023-05-01T09:56:32;97963.66;;;25.43;36.59
55066;BME280;40964;42.114;24.220;2023-05-01T09:59:15;97952.53;;;25.14;36.93
55066;BME280;40964;42.114;24.220;2023-05-01T10:01:43;97959.25;;;25.25;37.06
55066;BME280;40964;42.114;24.220;2023-05-01T10:04:09;97959.56;;;25.24;38.72
55066;BME280;40964;42.114;24.220;2023-05-01T10:06:35;97953.56;;;25.04;36.49
55066;BME280;40964;42.114;24.220;2023-05-01T10:09:02;97954.72;;;25.34;36.83
55066;BME280;40964;42.114;24.220;2023-05-01T10:11:28;97949.41;;;25.21;36.95
55066;BME280;40964;42.114;24.220;2023-05-01T10:14:09;97955.47;;;25.04;36.60
55066;BME280;40964;42.114;24.220;2023-05-01T10:16:36;97943.28;;;25.29;37.36
55066;BME280;40964;42.114;24.220;2023-05-01T10:19:03;97955.31;;;25.54;36.94
55066;BME280;40964;42.114;24.220;2023-05-01T10:21:29;97950.47;;;25.42;36.20
55066;BME280;40964;42.114;24.220;2023-05-01T10:23:54;97946.78;;;25.29;35.33
55066;BME280;40964;42.114;24.220;2023-05-01T10:26:21;97946.47;;;25.31;36.82
55066;BME280;40964;42.114;24.220;2023-05-01T10:28:48;97934.97;;;25.47;37.51
55066;BME280;40964;42.114;24.220;2023-05-01T10:31:14;97937.22;;;25.01;32.97
55066;BME280;40964;42.114;24.220;2023-05-01T10:33:42;97934.84;;;25.22;35.38
55066;BME280;40964;42.114;24.220;2023-05-01T10:36:11;97934.47;;;25.37;34.64
55066;BME280;40964;42.114;24.220;2023-05-01T10:38:40;97939.97;;;25.32;32.97
55066;BME280;40964;42.114;24.220;2023-05-01T10:41:10;97925.97;;;24.99;32.93
55066;BME280;40964;42.114;24.220;2023-05-01T10:43:35;97931.84;;;25.54;34.56
55066;BME280;40964;42.114;24.220;2023-05-01T10:51:09;97952.69;;;24.73;35.46
55066;BME280;40964;42.114;24.220;2023-05-01T10:53:39;97940.84;;;24.24;34.49
55066;BME280;40964;42.114;24.220;2023-05-01T10:59:01;97946.59;;;24.17;34.73
55066;BME280;40964;42.114;24.220;2023-05-01T11:01:43;97953.50;;;24.10;35.73
55066;BME280;40964;42.114;24.220;2023-05-01T11:07:14;97954.69;;;24.03;34.05
55066;BME280;40964;42.114;24.220;2023-05-01T11:09:48;97951.13;;;24.36;36.06
55066;BME280;40964;42.114;24.220;2023-05-01T11:15:05;97950.44;;;24.52;35.35
55066;BME280;40964;42.114;24.220;2023-05-01T11:20:04;97962.75;;;23.90;35.93
55066;BME280;40964;42.114;24.220;2023-05-01T11:22:30;97962.91;;;23.52;35.74
55066;BME280;40964;42.114;24.220;2023-05-01T11:24:56;97954.53;;;23.07;37.66
55066;BME280;40964;42.114;24.220;2023-05-01T11:27:21;97964.03;;;22.81;39.87
55066;BME280;40964;42.114;24.220;2023-05-01T11:29:49;97966.69;;;22.67;39.82
55066;BME280;40964;42.114;24.220;2023-05-01T11:32:18;97960.78;;;22.27;41.02
55066;BME280;40964;42.114;24.220;2023-05-01T11:34:43;97967.91;;;21.89;40.36
55066;BME280;40964;42.114;24.220;2023-05-01T11:37:09;97964.28;;;21.80;40.73
55066;BME280;40964;42.114;24.220;2023-05-01T11:39:34;97970.25;;;21.48;42.08
55066;BME280;40964;42.114;24.220;2023-05-01T11:42:09;97959.84;;;21.07;43.87
55066;BME280;40964;42.114;24.220;2023-05-01T11:44:34;97958.16;;;20.87;44.69
55066;BME280;40964;42.114;24.220;2023-05-01T11:47:01;97971.53;;;20.43;45.67
55066;BME280;40964;42.114;24.220;2023-05-01T11:49:27;97976.97;;;20.12;49.67
55066;BME280;40964;42.114;24.220;2023-05-01T11:51:56;97968.72;;;20.04;47.36
55066;BME280;40964;42.114;24.220;2023-05-01T11:54:22;97960.25;;;19.81;47.16
55066;BME280;40964;42.114;24.220;2023-05-01T11:56:57;97967.97;;;19.98;49.68
55066;BME280;40964;42.114;24.220;2023-05-01T11:59:23;97962.56;;;20.08;48.77
55066;BME280;40964;42.114;24.220;2023-05-01T12:01:50;97967.09;;;20.13;48.48
55066;BME280;40964;42.114;24.220;2023-05-01T12:04:26;97965.47;;;20.12;47.23
55066;BME280;40964;42.114;24.220;2023-05-01T12:06:52;97966.50;;;20.21;46.61
55066;BME280;40964;42.114;24.220;2023-05-01T12:09:19;97967.06;;;20.23;46.03
55066;BME280;40964;42.114;24.220;2023-05-01T12:11:47;97973.72;;;20.26;44.96
55066;BME280;40964;42.114;24.220;2023-05-01T12:14:14;97976.34;;;20.36;44.34
55066;BME280;40964;42.114;24.220;2023-05-01T12:16:43;97972.84;;;20.46;42.83
55066;BME280;40964;42.114;24.220;2023-05-01T12:19:11;97967.72;;;20.54;41.96
55066;BME280;40964;42.114;24.220;2023-05-01T12:21:37;97968.03;;;20.42;44.34
55066;BME280;40964;42.114;24.220;2023-05-01T12:24:11;97968.31;;;20.36;44.81
55066;BME280;40964;42.114;24.220;2023-05-01T12:26:37;97959.75;;;20.44;46.47
55066;BME280;40964;42.114;24.220;2023-05-01T12:29:04;97965.88;;;20.50;43.43
55066;BME280;40964;42.114;24.220;2023-05-01T12:31:31;97970.38;;;20.54;44.77
55066;BME280;40964;42.114;24.220;2023-05-01T12:33:58;97966.69;;;20.50;43.72
55066;BME280;40964;42.114;24.220;2023-05-01T12:36:26;97969.03;;;20.57;42.03
55066;BME280;40964;42.114;24.220;2023-05-01T12:39:01;97961.16;;;20.31;42.07
55066;BME280;40964;42.114;24.220;2023-05-01T12:41:41;97967.34;;;20.17;43.01
55066;BME280;40964;42.114;24.220;2023-05-01T12:46:43;97978.34;;;20.05;45.40
55066;BME280;40964;42.114;24.220;2023-05-01T12:49:16;97982.34;;;20.02;46.03
55066;BME280;40964;42.114;24.220;2023-05-01T12:51:46;97978.88;;;20.07;47.09
55066;BME280;40964;42.114;24.220;2023-05-01T12:54:11;97975.69;;;20.00;45.96
55066;BME280;40964;42.114;24.220;2023-05-01T12:56:41;97975.97;;;19.98;44.82
55066;BME280;40964;42.114;24.220;2023-05-01T12:59:27;97966.84;;;20.09;46.53
55066;BME280;40964;42.114;24.220;2023-05-01T13:01:59;97972.97;;;20.15;47.69
55066;BME280;40964;42.114;24.220;2023-05-01T13:04:25;97970.06;;;20.06;47.21
55066;BME280;40964;42.114;24.220;2023-05-01T13:06:54;97967.66;;;20.05;47.92
55066;BME280;40964;42.114;24.220;2023-05-01T13:09:25;97967.16;;;19.98;46.73
55066;BME280;40964;42.114;24.220;2023-05-01T13:12:06;97973.03;;;19.95;46.61
55066;BME280;40964;42.114;24.220;2023-05-01T13:14:37;97964.03;;;19.70;47.05
55066;BME280;40964;42.114;24.220;2023-05-01T13:17:05;97972.81;;;19.81;47.30
55066;BME280;40964;42.114;24.220;2023-05-01T13:19:31;97978.44;;;19.74;46.64
55066;BME280;40964;42.114;24.220;2023-05-01T13:21:57;97967.19;;;19.82;46.34
55066;BME280;40964;42.114;24.220;2023-05-01T13:27:10;97970.41;;;19.74;47.29
55066;BME280;40964;42.114;24.220;2023-05-01T13:29:37;97966.69;;;19.80;47.01
55066;BME280;40964;42.114;24.220;2023-05-01T13:32:04;97971.78;;;19.72;47.35
55066;BME280;40964;42.114;24.220;2023-05-01T13:34:33;97980.56;;;19.72;48.63